KCRG/CRG METAR and TAF weather

Enter ICAO airport designator
Station Type Date Time Source
KCRG METAR 2018/01/22 19:53 UTC NOAA

KCRG 221953Z 14010KT 10SM BKN033 BKN042 24/18 A3005 RMK AO2 SLP175 T02390178


Station Type Date Time Source
KCRG Decoded METAR 2018/01/22 19:53 UTC NOAA

JACKSONVILLE CRAIG MUN, FL, United States (KCRG) 30-20N 81-31W 13M
Jan 22, 2018 - 02:53 PM EST / 2018.01.22 1953 UTC
Wind: from the SE (140 degrees) at 12 MPH (10 KT):0
Visibility: 10 mile(s):0
Sky conditions: mostly cloudy
Temperature: 75.0 F (23.9 C)
Dew Point: 64.0 F (17.8 C)
Relative Humidity: 68%
Pressure (altimeter): 30.05 in. Hg (1017 hPa)
ob: KCRG 221953Z 14010KT 10SM BKN033 BKN042 24/18 A3005 RMK AO2 SLP175 T02390178
cycle: 20

Station Type Date Time Source
KCRG TAF 2018/01/22 20:58 UTC NOAA

TAF
AMD KCRG 221957Z 2220/2318 15011KT P6SM BKN035 BKN250
FM230100 16008KT P6SM SCT020 OVC120
FM230400 17007KT P6SM VCSH SCT015 BKN030 OVC100
FM230600 17006KT 5SM -SHRA BR SCT010 OVC020 PROB30 2306/2310 2SM TSRA BKN010CB
FM231300 22009KT P6SM VCSH OVC010


Example: see airport list